Time;durP1;ratioP1;P1;durP2;ratioP2;P2;SDS_P1;SDS_P2;PMS_P1;PMS_P2;Temp;Humidity;BMP_temperature;BMP_pressure;BME280_temperature;BME280_humidity;BME280_pressure;Samples;Min_cycle;Max_cycle;Signal;HPM_P1;HPM_P2
2023/10/11 00:00:34;;;;;;;5.00;3.07;;;16.40;99.90;;;;;;5038101;28;20873;-73
2023/10/11 00:05:43;;;;;;;7.27;3.30;;;16.40;99.90;;;;;;5038312;28;20494;-74
2023/10/11 00:08:16;;;;;;;6.47;3.10;;;16.40;99.90;;;;;;5038596;28;20406;-73
2023/10/11 00:10:55;;;;;;;5.10;3.13;;;16.30;99.90;;;;;;5038590;28;20905;-74
2023/10/11 00:13:22;;;;;;;7.30;3.80;;;16.40;99.90;;;;;;5037720;28;20414;-73
2023/10/11 00:15:50;;;;;;;7.13;3.33;;;16.30;99.90;;;;;;5034922;28;20820;-73
2023/10/11 00:18:24;;;;;;;4.87;2.80;;;16.30;99.90;;;;;;5035191;28;20418;-74
2023/10/11 00:20:51;;;;;;;6.70;4.07;;;16.30;99.90;;;;;;5035275;28;20450;-74
2023/10/11 00:23:25;;;;;;;8.07;3.60;;;16.30;99.90;;;;;;5035562;28;20409;-74
2023/10/11 00:25:53;;;;;;;4.80;3.33;;;16.20;99.90;;;;;;5034149;28;20835;-73
2023/10/11 00:28:24;;;;;;;4.70;3.40;;;16.20;99.90;;;;;;5034644;28;20407;-74
2023/10/11 00:30:54;;;;;;;5.60;2.97;;;16.20;99.90;;;;;;5035339;28;20438;-74
2023/10/11 00:33:20;;;;;;;4.47;3.50;;;16.10;99.90;;;;;;5034044;28;20425;-73
2023/10/11 00:35:48;;;;;;;4.40;3.73;;;16.20;99.90;;;;;;5035008;28;20437;-73
2023/10/11 00:38:20;;;;;;;5.63;3.57;;;16.20;99.90;;;;;;5034715;28;20429;-74
2023/10/11 00:40:48;;;;;;;11.67;2.80;;;16.30;99.90;;;;;;5034820;28;21067;-73
2023/10/11 00:43:21;;;;;;;6.53;3.57;;;16.40;99.90;;;;;;5034691;28;20936;-73
2023/10/11 00:45:48;;;;;;;4.50;3.20;;;16.60;99.90;;;;;;5034672;28;20507;-73
2023/10/11 00:48:19;;;;;;;5.20;3.00;;;16.70;99.90;;;;;;5034651;28;20411;-74
2023/10/11 00:50:45;;;;;;;4.90;3.13;;;16.80;99.90;;;;;;5034944;28;20840;-74
2023/10/11 00:53:12;;;;;;;8.47;2.90;;;16.90;99.90;;;;;;5033571;28;20838;-74
2023/10/11 00:55:38;;;;;;;5.33;3.97;;;17.00;99.90;;;;;;5034560;28;20434;-73
2023/10/11 00:58:04;;;;;;;5.50;3.07;;;17.10;99.90;;;;;;5034510;28;20410;-74
2023/10/11 01:00:35;;;;;;;3.40;2.90;;;17.20;99.90;;;;;;5034502;28;20228;-73
2023/10/11 01:03:03;;;;;;;4.80;3.20;;;17.30;99.90;;;;;;5034566;28;20991;-73
2023/10/11 01:05:32;;;;;;;5.20;3.23;;;17.30;99.90;;;;;;5040977;28;20508;-74
2023/10/11 01:07:58;;;;;;;3.63;3.23;;;17.40;99.90;;;;;;5041331;28;20494;-73
2023/10/11 01:10:23;;;;;;;5.63;3.50;;;17.40;99.90;;;;;;5034288;28;20956;-74
2023/10/11 01:12:49;;;;;;;5.90;3.47;;;17.40;99.90;;;;;;5034575;28;20170;-74
2023/10/11 01:15:19;;;;;;;6.17;3.30;;;17.50;99.90;;;;;;5033063;28;20631;-74
2023/10/11 01:17:45;;;;;;;7.73;4.53;;;17.50;99.90;;;;;;5041653;28;20168;-73
2023/10/11 01:20:14;;;;;;;10.43;3.90;;;17.50;99.90;;;;;;5032877;28;20456;-74
2023/10/11 01:22:44;;;;;;;5.33;3.13;;;17.50;99.90;;;;;;5032974;28;20781;-73
2023/10/11 01:25:18;;;;;;;8.13;3.60;;;17.50;99.90;;;;;;5033053;28;20484;-74
2023/10/11 01:27:47;;;;;;;10.23;3.47;;;17.50;99.90;;;;;;5032959;28;20994;-74
2023/10/11 01:30:13;;;;;;;6.23;3.53;;;17.60;99.90;;;;;;5032754;28;20414;-73
2023/10/11 01:32:41;;;;;;;4.70;3.93;;;17.60;99.90;;;;;;5034038;28;20418;-73
2023/10/11 01:35:19;;;;;;;10.40;3.77;;;17.70;99.90;;;;;;5032686;28;20414;-74
2023/10/11 01:37:48;;;;;;;6.40;3.57;;;17.80;99.90;;;;;;5032473;28;20441;-73
2023/10/11 01:40:20;;;;;;;3.90;3.07;;;17.80;99.90;;;;;;5033598;28;20449;-73
2023/10/11 01:42:49;;;;;;;6.13;3.30;;;17.80;99.90;;;;;;5034112;28;20826;-74
2023/10/11 01:45:16;;;;;;;7.50;3.40;;;17.90;99.90;;;;;;5032267;28;20414;-73
2023/10/11 01:47:44;;;;;;;5.07;3.17;;;17.90;99.90;;;;;;5032477;28;20410;-74
2023/10/11 01:50:09;;;;;;;7.90;3.80;;;18.00;99.90;;;;;;5031888;28;20410;-73
2023/10/11 01:52:35;;;;;;;4.70;3.20;;;18.00;99.90;;;;;;5032479;28;20744;-74
2023/10/11 01:55:01;;;;;;;5.37;2.90;;;18.10;99.90;;;;;;5032452;28;20184;-73
2023/10/11 01:57:27;;;;;;;4.87;3.13;;;18.20;99.90;;;;;;5032275;28;20199;-74
2023/10/11 01:59:53;;;;;;;12.53;4.30;;;18.20;99.90;;;;;;5031940;28;20450;-73
2023/10/11 02:02:24;;;;;;;15.43;3.73;;;18.20;99.90;;;;;;5033386;28;20500;-74
2023/10/11 02:04:50;;;;;;;7.40;3.40;;;18.20;99.90;;;;;;5025886;28;20242;-74
2023/10/11 02:07:15;;;;;;;5.13;3.70;;;18.20;99.90;;;;;;5033079;28;20514;-74
2023/10/11 02:09:43;;;;;;;4.80;3.30;;;18.20;99.90;;;;;;5035143;28;20175;-73
2023/10/11 02:12:11;;;;;;;5.53;3.37;;;18.20;99.90;;;;;;5038137;28;20263;-73
2023/10/11 02:14:40;;;;;;;3.97;3.50;;;18.10;99.90;;;;;;5031901;28;20488;-73
2023/10/11 02:17:06;;;;;;;7.10;4.50;;;18.10;99.90;;;;;;5033143;28;20524;-74
2023/10/11 02:19:32;;;;;;;15.97;3.30;;;18.10;99.90;;;;;;5033181;28;20825;-74
2023/10/11 02:22:00;;;;;;;4.77;2.83;;;18.10;99.90;;;;;;5033323;28;20464;-73
2023/10/11 02:24:25;;;;;;;7.30;3.67;;;18.00;99.90;;;;;;5040246;28;20410;-74
2023/10/11 02:26:51;;;;;;;5.63;3.53;;;18.00;99.90;;;;;;5032893;28;20430;-73
2023/10/11 02:29:21;;;;;;;5.50;3.00;;;18.00;99.90;;;;;;5033001;28;20179;-74
2023/10/11 02:31:52;;;;;;;8.83;3.60;;;17.90;99.90;;;;;;5033112;28;20853;-74
2023/10/11 02:34:18;;;;;;;5.37;3.37;;;17.90;99.90;;;;;;5032983;28;20425;-73
2023/10/11 02:36:54;;;;;;;5.87;3.60;;;17.90;99.90;;;;;;5032557;28;20426;-74
2023/10/11 02:39:20;;;;;;;4.90;3.40;;;17.80;99.90;;;;;;5032586;28;20453;-73
2023/10/11 02:41:50;;;;;;;5.53;3.10;;;17.70;99.90;;;;;;5039236;28;20479;-74
2023/10/11 02:44:16;;;;;;;8.73;3.43;;;17.60;99.90;;;;;;5032650;28;20407;-74
2023/10/11 02:46:44;;;;;;;4.80;2.80;;;17.40;99.90;;;;;;5031455;28;20438;-74
2023/10/11 02:49:19;;;;;;;7.93;3.50;;;17.40;99.90;;;;;;5032943;28;20171;-73
2023/10/11 02:51:52;;;;;;;5.47;3.20;;;17.30;99.90;;;;;;5031436;28;20413;-73
2023/10/11 02:54:38;;;;;;;8.63;3.87;;;17.20;99.90;;;;;;5032950;28;20411;-74
2023/10/11 02:57:20;;;;;;;3.87;2.43;;;17.10;99.90;;;;;;5032646;28;20434;-74
2023/10/11 02:59:50;;;;;;;8.67;3.80;;;16.90;99.90;;;;;;5032543;28;20550;-74
2023/10/11 03:02:16;;;;;;;6.33;3.17;;;16.90;99.90;;;;;;5033569;28;20457;-74
2023/10/11 03:04:42;;;;;;;5.83;3.37;;;16.80;99.90;;;;;;5033482;28;20407;-73
2023/10/11 03:07:14;;;;;;;3.77;2.43;;;16.70;99.90;;;;;;5037813;28;20531;-74
2023/10/11 03:09:40;;;;;;;6.90;3.43;;;16.60;99.90;;;;;;5032404;28;20415;-74
2023/10/11 03:12:18;;;;;;;8.03;3.97;;;16.50;99.90;;;;;;5046272;28;20430;-74
2023/10/11 03:14:45;;;;;;;5.03;3.40;;;16.40;99.90;;;;;;5040749;28;20174;-74
2023/10/11 03:17:15;;;;;;;9.53;3.37;;;16.40;99.90;;;;;;5032660;28;20813;-74
2023/10/11 03:19:44;;;;;;;6.30;3.20;;;16.30;99.90;;;;;;5032761;28;21007;-74
2023/10/11 03:22:20;;;;;;;5.13;3.20;;;16.20;99.90;;;;;;5037822;28;20970;-74
2023/10/11 03:24:54;;;;;;;7.07;4.43;;;16.20;99.90;;;;;;5032531;28;20772;-74
2023/10/11 03:27:20;;;;;;;5.33;2.70;;;16.20;99.90;;;;;;5037312;28;20433;-74
2023/10/11 03:29:46;;;;;;;5.10;2.93;;;16.10;99.90;;;;;;5032063;28;20913;-73
2023/10/11 03:32:12;;;;;;;6.60;3.63;;;16.10;99.90;;;;;;5032362;28;20414;-74
2023/10/11 03:34:38;;;;;;;5.00;3.23;;;16.10;99.90;;;;;;5031253;28;20259;-74
2023/10/11 03:37:10;;;;;;;8.50;3.60;;;16.10;99.90;;;;;;5032549;28;20568;-74
2023/10/11 03:42:14;;;;;;;6.70;3.70;;;16.10;99.90;;;;;;5032271;28;20406;-74
2023/10/11 03:44:45;;;;;;;3.90;3.07;;;16.10;99.90;;;;;;5031080;28;20413;-74
2023/10/11 03:47:14;;;;;;;9.30;3.57;;;16.20;99.90;;;;;;5030961;28;20491;-73
2023/10/11 03:52:16;;;;;;;7.67;3.47;;;16.30;99.90;;;;;;5035899;28;20825;-73
2023/10/11 03:54:45;;;;;;;5.43;4.30;;;16.40;99.90;;;;;;5034526;28;20420;-73
2023/10/11 03:57:10;;;;;;;6.07;3.87;;;16.60;99.90;;;;;;5034467;28;20466;-73
2023/10/11 03:59:39;;;;;;;6.10;3.00;;;16.70;99.90;;;;;;5035575;28;20543;-74
2023/10/11 04:02:10;;;;;;;7.93;3.77;;;16.80;99.90;;;;;;5039278;28;20190;-73
2023/10/11 04:04:40;;;;;;;6.20;3.80;;;16.90;99.90;;;;;;5037608;28;20952;-74
2023/10/11 04:07:06;;;;;;;9.83;4.10;;;16.90;99.90;;;;;;5036320;28;20513;-73
2023/10/11 04:09:33;;;;;;;4.23;3.20;;;16.90;99.90;;;;;;5036091;28;20414;-74
2023/10/11 04:12:04;;;;;;;7.23;3.07;;;17.00;99.90;;;;;;5041275;28;20501;-74
2023/10/11 04:14:45;;;;;;;8.70;3.20;;;17.00;99.90;;;;;;5035453;28;20476;-73
2023/10/11 04:19:48;;;;;;;3.63;2.30;;;17.10;99.90;;;;;;5035537;28;20452;-74
2023/10/11 04:22:18;;;;;;;4.63;3.57;;;17.10;99.90;;;;;;5035194;28;20402;-73
2023/10/11 04:24:45;;;;;;;6.43;3.40;;;17.00;99.90;;;;;;5037871;28;20889;-74
2023/10/11 04:30:17;;;;;;;4.47;2.70;;;16.90;99.90;;;;;;5026906;28;20418;-74
2023/10/11 04:32:46;;;;;;;4.50;3.80;;;16.90;99.90;;;;;;5039977;28;20511;-74
2023/10/11 04:35:36;;;;;;;4.97;3.37;;;16.80;99.90;;;;;;5033696;28;20415;-73
2023/10/11 04:38:03;;;;;;;4.37;2.83;;;16.60;99.90;;;;;;5034820;28;20489;-74
2023/10/11 04:45:45;;;;;;;4.80;3.90;;;16.30;99.90;;;;;;5035052;28;20441;-74
2023/10/11 04:48:29;;;;;;;4.90;3.37;;;16.20;99.90;;;;;;5038788;28;20415;-74
2023/10/11 04:51:04;;;;;;;8.37;2.73;;;16.10;99.90;;;;;;5034963;28;20413;-74
2023/10/11 04:53:34;;;;;;;7.20;3.17;;;16.00;99.90;;;;;;5034764;28;20465;-74
2023/10/11 04:56:01;;;;;;;8.20;3.17;;;15.90;99.90;;;;;;5041509;28;20964;-73
2023/10/11 04:58:41;;;;;;;4.80;3.70;;;15.80;99.90;;;;;;5034382;28;20414;-74
2023/10/11 05:01:11;;;;;;;5.13;2.97;;;15.80;99.90;;;;;;5034257;28;20936;-73
2023/10/11 05:03:38;;;;;;;3.97;2.87;;;15.80;99.90;;;;;;5035310;28;20502;-74
2023/10/11 05:06:13;;;;;;;7.43;3.10;;;15.70;99.90;;;;;;5038118;28;20426;-74
2023/10/11 05:08:51;;;;;;;6.03;3.10;;;15.70;99.90;;;;;;5037790;28;20843;-74
2023/10/11 05:11:35;;;;;;;5.10;3.33;;;15.70;99.90;;;;;;5038225;28;20909;-74
2023/10/11 05:16:49;;;;;;;12.57;3.87;;;15.60;99.90;;;;;;5042108;28;20472;-74
2023/10/11 05:19:20;;;;;;;4.97;3.30;;;15.50;99.90;;;;;;5032866;28;20482;-74
2023/10/11 05:21:52;;;;;;;5.67;4.47;;;15.40;99.90;;;;;;5042211;28;20187;-74
2023/10/11 05:27:11;;;;;;;3.63;3.10;;;15.20;99.90;;;;;;5046519;28;20464;-73
2023/10/11 05:30:05;;;;;;;7.63;3.30;;;15.00;99.90;;;;;;5034835;28;20469;-74
2023/10/11 05:32:27;;;;;;;5.17;3.20;;;14.90;99.90;;;;;;5034099;28;20424;-73
2023/10/11 05:35:19;;;;;;;6.00;3.30;;;14.80;99.90;;;;;;5034174;28;20444;-73
2023/10/11 05:51:29;;;;;;;6.50;4.10;;;14.30;99.90;;;;;;5034600;28;20927;-74
2023/10/11 05:53:55;;;;;;;6.27;3.83;;;14.30;99.90;;;;;;5034384;28;20778;-73
2023/10/11 05:56:21;;;;;;;9.10;4.30;;;14.30;99.90;;;;;;5034032;28;20418;-74
2023/10/11 05:58:51;;;;;;;7.50;4.60;;;14.30;99.90;;;;;;5034403;28;20426;-74
2023/10/11 06:01:21;;;;;;;8.87;4.60;;;14.30;99.90;;;;;;5036602;28;20437;-74
2023/10/11 06:03:48;;;;;;;5.90;4.03;;;14.20;99.90;;;;;;5036858;28;20422;-74
2023/10/11 06:06:24;;;;;;;8.90;4.80;;;14.30;99.90;;;;;;5036737;28;20436;-74
2023/10/11 06:08:56;;;;;;;5.07;3.93;;;14.40;99.90;;;;;;5035656;28;20412;-74
2023/10/11 06:11:24;;;;;;;5.47;4.10;;;14.40;99.90;;;;;;5033686;28;20410;-74
2023/10/11 06:13:52;;;;;;;5.60;4.70;;;14.50;99.90;;;;;;5033981;28;20406;-74
2023/10/11 06:16:19;;;;;;;6.23;4.30;;;14.50;99.90;;;;;;5033161;28;20426;-74
2023/10/11 06:18:57;;;;;;;5.73;4.30;;;14.60;99.90;;;;;;5033306;28;20414;-74
2023/10/11 06:21:33;;;;;;;9.40;4.30;;;14.70;99.90;;;;;;5033334;28;20414;-74
2023/10/11 06:24:05;;;;;;;8.07;4.77;;;14.80;99.90;;;;;;5033237;28;21022;-74
2023/10/11 06:26:52;;;;;;;7.33;4.20;;;14.90;99.90;;;;;;5033042;28;20517;-74
2023/10/11 06:29:22;;;;;;;6.00;4.33;;;14.90;99.90;;;;;;5031706;28;20553;-74
2023/10/11 06:31:49;;;;;;;16.93;5.23;;;15.00;99.90;;;;;;5033227;28;20406;-74
2023/10/11 06:34:24;;;;;;;4.67;3.77;;;15.10;99.90;;;;;;5032978;28;20407;-73
2023/10/11 06:36:52;;;;;;;5.63;4.73;;;15.20;99.90;;;;;;5032947;28;20426;-74
2023/10/11 06:39:34;;;;;;;9.27;5.10;;;15.20;99.90;;;;;;5032684;28;20449;-74
2023/10/11 06:42:14;;;;;;;14.70;5.67;;;15.40;99.90;;;;;;5031911;28;20497;-74
2023/10/11 06:44:41;;;;;;;6.17;4.33;;;15.40;99.90;;;;;;5031720;28;20509;-74
2023/10/11 06:47:06;;;;;;;7.03;4.53;;;15.50;99.90;;;;;;5032767;28;20796;-74
2023/10/11 06:49:44;;;;;;;9.40;5.30;;;15.60;99.90;;;;;;5032444;28;20409;-74
2023/10/11 06:52:11;;;;;;;9.57;4.97;;;15.70;99.90;;;;;;5032890;28;20253;-74
2023/10/11 06:54:38;;;;;;;8.50;5.70;;;15.60;99.90;;;;;;5033022;28;20454;-74
2023/10/11 06:57:07;;;;;;;6.93;5.23;;;15.60;99.90;;;;;;5030957;28;20446;-74
2023/10/11 06:59:33;;;;;;;11.30;5.77;;;15.60;99.90;;;;;;5031259;28;20984;-74
2023/10/11 07:01:59;;;;;;;5.13;4.00;;;15.70;99.90;;;;;;5030534;28;20442;-74
2023/10/11 07:04:36;;;;;;;16.17;5.90;;;15.90;99.90;;;;;;5039030;28;20419;-74
2023/10/11 07:07:07;;;;;;;9.60;5.20;;;16.00;99.90;;;;;;5031553;28;20468;-74
2023/10/11 07:09:33;;;;;;;11.40;4.50;;;16.20;99.90;;;;;;5031483;28;20506;-74
2023/10/11 07:12:28;;;;;;;15.50;5.67;;;16.30;99.90;;;;;;5031352;28;20475;-74
2023/10/11 07:14:55;;;;;;;7.33;5.80;;;16.40;99.90;;;;;;5047882;28;20500;-74
2023/10/11 07:17:21;;;;;;;7.13;4.73;;;16.60;99.90;;;;;;5036096;28;20438;-74
2023/10/11 07:19:50;;;;;;;7.60;4.80;;;16.70;99.90;;;;;;5030891;28;20790;-74
2023/10/11 07:22:18;;;;;;;10.53;6.07;;;16.80;99.90;;;;;;5032308;28;20210;-74
2023/10/11 07:24:45;;;;;;;5.53;4.53;;;16.90;99.90;;;;;;5036803;28;20407;-74
2023/10/11 07:27:26;;;;;;;20.40;6.30;;;17.00;99.90;;;;;;5036395;28;20457;-73
2023/10/11 07:29:54;;;;;;;7.93;4.40;;;17.00;99.90;;;;;;5036306;28;20409;-74
2023/10/11 07:32:20;;;;;;;7.70;5.07;;;17.10;99.90;;;;;;5035053;28;20430;-74
2023/10/11 07:34:48;;;;;;;9.07;5.60;;;17.30;99.90;;;;;;5036482;28;20924;-74
2023/10/11 07:37:18;;;;;;;8.50;4.97;;;17.20;99.90;;;;;;5034708;28;20830;-74
2023/10/11 07:39:47;;;;;;;10.03;5.73;;;17.30;99.90;;;;;;5037039;28;20457;-74
2023/10/11 07:42:18;;;;;;;4.93;4.30;;;17.60;99.90;;;;;;5036120;28;20406;-74
2023/10/11 07:44:50;;;;;;;7.93;4.57;;;17.90;99.90;;;;;;5041152;28;20928;-74
2023/10/11 07:47:15;;;;;;;7.37;4.40;;;18.10;99.90;;;;;;5037831;28;20852;-74
2023/10/11 07:49:45;;;;;;;9.73;5.53;;;18.40;99.90;;;;;;5039910;28;20491;-73
2023/10/11 07:52:19;;;;;;;5.97;4.37;;;18.60;99.90;;;;;;5036168;28;20172;-74
2023/10/11 07:54:45;;;;;;;8.13;5.20;;;18.80;99.90;;;;;;5035830;28;20406;-74
2023/10/11 07:57:14;;;;;;;14.63;4.77;;;19.10;99.90;;;;;;5034320;28;20442;-74
2023/10/11 07:59:41;;;;;;;12.77;4.07;;;19.20;99.90;;;;;;5035613;28;20453;-74
2023/10/11 08:04:53;;;;;;;9.63;3.83;;;19.50;99.90;;;;;;5041179;28;20498;-72
2023/10/11 08:07:19;;;;;;;12.10;4.97;;;19.80;99.90;;;;;;5029525;28;20500;-71
2023/10/11 08:09:52;;;;;;;3.90;3.47;;;20.00;99.90;;;;;;5032957;28;20921;-72
2023/10/11 08:12:19;;;;;;;9.20;4.83;;;20.20;99.90;;;;;;5035691;28;20198;-71
2023/10/11 08:14:45;;;;;;;8.77;4.57;;;20.60;99.90;;;;;;5035707;28;20402;-71
2023/10/11 08:17:15;;;;;;;10.17;6.40;;;21.30;99.90;;;;;;5035492;28;20445;-70
2023/10/11 08:19:44;;;;;;;5.23;4.23;;;22.30;99.90;;;;;;5035548;28;20472;-71
2023/10/11 08:22:18;;;;;;;6.20;4.37;;;23.90;99.90;;;;;;5034334;28;20421;-71
2023/10/11 08:24:46;;;;;;;7.33;4.77;;;25.70;99.90;;;;;;5035492;28;20406;-71
2023/10/11 08:27:13;;;;;;;11.43;4.40;;;27.70;99.90;;;;;;5035683;28;20509;-69
2023/10/11 08:29:42;;;;;;;8.00;4.40;;;29.50;93.00;;;;;;5035191;28;20775;-70
2023/10/11 08:32:12;;;;;;;7.30;4.13;;;31.10;83.50;;;;;;5035379;28;20406;-70
2023/10/11 08:34:48;;;;;;;4.97;3.30;;;32.60;69.10;;;;;;5034681;28;20418;-70
2023/10/11 08:37:14;;;;;;;4.20;3.03;;;33.80;53.70;;;;;;5035094;28;20429;-70
2023/10/11 08:39:44;;;;;;;5.47;3.93;;;34.90;49.10;;;;;;5034924;28;20940;-70
2023/10/11 08:42:16;;;;;;;5.80;4.57;;;35.50;43.00;;;;;;5049250;28;20418;-70
2023/10/11 08:44:46;;;;;;;5.40;3.47;;;36.50;41.90;;;;;;5036646;28;20465;-70
2023/10/11 08:47:16;;;;;;;5.27;3.40;;;37.00;37.40;;;;;;5037475;28;20442;-70
2023/10/11 08:49:48;;;;;;;4.47;4.07;;;37.10;36.50;;;;;;5037425;28;20822;-70
2023/10/11 08:52:24;;;;;;;7.33;3.80;;;37.20;37.00;;;;;;5034915;28;20414;-70
2023/10/11 08:54:50;;;;;;;5.80;3.90;;;36.40;35.00;;;;;;5033124;28;20759;-70
2023/10/11 08:57:25;;;;;;;4.67;3.80;;;36.20;36.10;;;;;;5019753;28;20426;-70
2023/10/11 08:59:56;;;;;;;5.47;4.20;;;35.80;36.30;;;;;;5033907;28;20452;-70
2023/10/11 09:02:24;;;;;;;3.90;3.37;;;35.60;35.60;;;;;;5036870;28;20422;-70
2023/10/11 09:05:06;;;;;;;6.77;4.20;;;36.10;36.20;;;;;;5038674;28;20613;-69
2023/10/11 09:07:54;;;;;;;4.90;3.37;;;36.70;34.90;;;;;;5034376;28;20936;-70
2023/10/11 09:10:22;;;;;;;4.97;3.70;;;37.60;35.00;;;;;;5028038;28;20796;-71
2023/10/11 09:12:49;;;;;;;6.10;2.80;;;38.00;32.10;;;;;;5034303;28;20406;-71
2023/10/11 09:15:14;;;;;;;6.00;3.60;;;38.00;31.60;;;;;;5033084;28;20422;-74
2023/10/11 09:17:40;;;;;;;5.90;5.30;;;38.80;32.50;;;;;;5038682;28;20413;-71
2023/10/11 09:20:23;;;;;;;7.20;4.60;;;39.00;30.90;;;;;;5037789;28;20253;-72
2023/10/11 09:22:52;;;;;;;5.90;3.63;;;39.00;29.60;;;;;;5034072;28;20167;-72
2023/10/11 09:25:22;;;;;;;6.33;3.50;;;39.00;30.00;;;;;;5034301;28;20420;-72
2023/10/11 09:27:53;;;;;;;3.67;3.10;;;38.20;29.30;;;;;;5035901;28;20410;-72
2023/10/11 09:30:20;;;;;;;5.40;3.40;;;37.40;29.70;;;;;;5034039;28;20411;-71
2023/10/11 09:32:49;;;;;;;13.43;3.93;;;37.90;31.30;;;;;;5033846;28;20417;-72
2023/10/11 09:37:46;;;;;;;5.43;3.43;;;39.40;29.00;;;;;;5032163;28;20462;-73
2023/10/11 09:40:16;;;;;;;4.30;3.60;;;39.60;29.30;;;;;;5033790;28;20462;-73
2023/10/11 09:42:43;;;;;;;5.17;3.90;;;40.70;29.60;;;;;;5032638;28;20808;-73
2023/10/11 09:45:16;;;;;;;3.87;3.40;;;41.10;28.30;;;;;;5033391;28;20485;-73
2023/10/11 09:47:43;;;;;;;6.90;3.33;;;42.00;27.90;;;;;;5013912;28;20762;-73
2023/10/11 09:50:14;;;;;;;7.50;3.73;;;41.90;26.70;;;;;;5013797;28;20902;-74
2023/10/11 09:52:46;;;;;;;5.40;4.30;;;41.80;26.50;;;;;;5014283;28;20774;-72
2023/10/11 09:55:17;;;;;;;4.67;3.80;;;41.30;26.20;;;;;;4997775;28;20401;-72
2023/10/11 09:57:57;;;;;;;6.60;3.90;;;41.30;26.50;;;;;;5028283;28;20494;-68
2023/10/11 10:00:43;;;;;;;6.13;4.40;;;41.70;26.90;;;;;;5012988;28;20458;-68
2023/10/11 10:03:13;;;;;;;6.17;3.73;;;42.70;26.20;;;;;;5007110;28;20411;-67
2023/10/11 10:06:05;;;;;;;4.07;3.67;;;42.70;25.40;;;;;;5012653;28;20538;-68
2023/10/11 10:08:31;;;;;;;4.03;3.43;;;44.00;26.40;;;;;;5011156;28;20419;-67
2023/10/11 10:10:57;;;;;;;12.63;3.53;;;44.20;24.50;;;;;;4994683;28;20401;-69
2023/10/11 10:13:26;;;;;;;4.00;3.17;;;44.40;23.90;;;;;;5012541;28;20211;-69
2023/10/11 10:15:53;;;;;;;7.30;3.80;;;44.30;23.80;;;;;;5012633;28;20441;-67
2023/10/11 10:18:20;;;;;;;3.80;3.40;;;44.80;24.80;;;;;;5012263;28;20403;-66
2023/10/11 10:20:47;;;;;;;5.97;4.10;;;44.90;23.40;;;;;;5012461;28;20965;-66
2023/10/11 10:23:15;;;;;;;5.53;3.40;;;44.40;23.50;;;;;;5012520;28;20411;-67
2023/10/11 10:25:48;;;;;;;4.93;3.70;;;43.90;23.00;;;;;;5012516;28;20513;-67
2023/10/11 10:28:32;;;;;;;6.43;5.30;;;43.10;23.30;;;;;;5003794;28;20392;-67
2023/10/11 10:31:10;;;;;;;5.53;3.30;;;42.50;23.50;;;;;;5012664;28;20907;-66
2023/10/11 10:33:36;;;;;;;5.03;3.23;;;43.10;24.80;;;;;;5012511;28;20542;-69
2023/10/11 10:36:28;;;;;;;5.40;4.27;;;44.10;24.60;;;;;;5012252;28;20426;-67
2023/10/11 10:39:00;;;;;;;4.50;3.50;;;44.60;22.90;;;;;;5012357;28;20423;-68
2023/10/11 10:41:34;;;;;;;4.10;3.50;;;45.40;23.90;;;;;;5012541;28;20403;-67
2023/10/11 10:44:09;;;;;;;6.33;4.63;;;45.50;22.60;;;;;;5012480;28;20407;-68
2023/10/11 10:46:37;;;;;;;3.90;3.30;;;45.40;22.50;;;;;;5012102;28;20429;-69
2023/10/11 10:49:03;;;;;;;5.70;4.00;;;45.60;22.40;;;;;;5012020;28;20430;-68
2023/10/11 10:51:35;;;;;;;6.70;3.83;;;45.20;22.30;;;;;;5010998;28;20795;-69
2023/10/11 10:54:12;;;;;;;3.93;3.53;;;45.80;22.60;;;;;;5012232;28;20406;-68
2023/10/11 10:56:46;;;;;;;7.07;4.07;;;45.70;21.90;;;;;;5011447;28;20481;-69
2023/10/11 10:59:20;;;;;;;7.40;3.50;;;45.90;21.80;;;;;;5011921;28;20916;-69
2023/10/11 11:01:50;;;;;;;6.10;4.30;;;45.90;22.20;;;;;;4994480;28;20425;-67
2023/10/11 11:04:20;;;;;;;7.90;3.70;;;46.00;22.40;;;;;;5012070;28;20370;-69
2023/10/11 11:06:50;;;;;;;8.57;3.80;;;46.50;22.60;;;;;;5012066;28;20431;-68
2023/10/11 11:09:27;;;;;;;3.70;3.20;;;47.00;22.00;;;;;;4994330;28;20388;-69
2023/10/11 11:11:57;;;;;;;4.90;3.60;;;46.50;21.50;;;;;;5012111;28;20477;-69
2023/10/11 11:14:24;;;;;;;5.83;3.90;;;45.80;21.40;;;;;;5012098;28;20818;-69
2023/10/11 11:17:00;;;;;;;5.83;4.07;;;45.20;21.80;;;;;;5012325;28;20480;-68
2023/10/11 11:19:26;;;;;;;3.97;3.27;;;45.60;22.60;;;;;;5011695;28;20457;-68
2023/10/11 11:22:12;;;;;;;5.73;4.10;;;45.80;22.20;;;;;;5011906;28;20825;-68
2023/10/11 11:24:41;;;;;;;8.20;4.43;;;45.60;21.80;;;;;;5012294;28;20497;-68
2023/10/11 11:27:25;;;;;;;8.40;3.70;;;45.70;22.00;;;;;;5011732;28;20431;-68
2023/10/11 11:29:54;;;;;;;5.80;3.87;;;46.50;22.40;;;;;;5011729;28;20408;-68
2023/10/11 11:32:37;;;;;;;4.63;3.80;;;46.00;20.90;;;;;;5011744;28;20422;-66
2023/10/11 11:35:09;;;;;;;5.27;4.67;;;46.50;21.40;;;;;;5011756;28;20396;-68
2023/10/11 11:37:39;;;;;;;5.87;4.10;;;47.30;21.70;;;;;;5011750;28;20462;-67
2023/10/11 11:40:24;;;;;;;7.33;4.30;;;48.10;21.50;;;;;;5011586;28;20468;-67
2023/10/11 11:42:50;;;;;;;8.50;3.60;;;47.90;20.40;;;;;;5011756;28;20754;-66
2023/10/11 11:45:20;;;;;;;4.53;4.03;;;47.50;20.80;;;;;;5011633;28;20430;-67
2023/10/11 11:47:58;;;;;;;9.33;3.53;;;47.10;21.40;;;;;;5011956;28;20635;-68
2023/10/11 11:50:23;;;;;;;5.23;3.77;;;46.30;20.10;;;;;;5011686;28;20374;-68
2023/10/11 11:52:50;;;;;;;6.80;3.63;;;45.90;21.30;;;;;;4994100;28;20438;-68
2023/10/11 11:55:16;;;;;;;3.63;3.27;;;45.50;21.30;;;;;;5011599;28;20192;-68
2023/10/11 11:57:42;;;;;;;7.27;5.43;;;45.00;20.90;;;;;;4993932;28;20422;-67
2023/10/11 12:02:53;;;;;;;4.37;3.60;;;43.80;21.50;;;;;;5011480;28;20421;-69
2023/10/11 12:05:19;;;;;;;3.73;3.33;;;43.40;21.70;;;;;;5011478;28;20408;-68
2023/10/11 12:07:44;;;;;;;7.77;4.40;;;44.10;22.60;;;;;;5011454;28;20410;-68
2023/10/11 12:10:25;;;;;;;7.97;4.17;;;44.60;21.90;;;;;;5013650;28;20219;-68
2023/10/11 12:12:52;;;;;;;4.10;3.63;;;44.50;21.70;;;;;;5015186;28;20479;-67
2023/10/11 12:15:18;;;;;;;6.83;3.70;;;45.80;22.50;;;;;;5014846;28;20419;-67
2023/10/11 12:17:47;;;;;;;7.13;3.93;;;47.10;21.60;;;;;;5014954;28;20780;-68
2023/10/11 12:20:18;;;;;;;8.20;4.93;;;47.50;20.60;;;;;;5014793;28;20192;-69
2023/10/11 12:22:44;;;;;;;8.77;5.30;;;47.60;20.20;;;;;;5014937;28;20370;-67
2023/10/11 12:25:13;;;;;;;6.23;4.60;;;47.10;20.10;;;;;;5014861;28;20865;-69
2023/10/11 12:27:42;;;;;;;7.13;4.40;;;46.90;20.80;;;;;;5014739;28;20631;-69
2023/10/11 12:30:19;;;;;;;7.77;3.40;;;46.00;20.50;;;;;;5014551;28;20385;-69
2023/10/11 12:32:50;;;;;;;6.13;3.73;;;45.40;21.40;;;;;;5014757;28;20486;-68
2023/10/11 12:35:16;;;;;;;8.00;4.07;;;44.80;21.20;;;;;;5014593;28;20378;-67
2023/10/11 12:37:41;;;;;;;5.23;4.13;;;44.80;21.50;;;;;;5014720;28;20482;-68
2023/10/11 12:40:13;;;;;;;8.80;4.47;;;45.00;21.50;;;;;;5014378;28;20483;-68
2023/10/11 12:42:42;;;;;;;5.60;4.63;;;44.90;21.60;;;;;;5014498;28;20172;-68
2023/10/11 12:45:08;;;;;;;5.80;3.73;;;45.20;21.40;;;;;;5014240;28;20426;-68
2023/10/11 12:47:36;;;;;;;5.77;4.23;;;45.20;21.50;;;;;;5014124;28;20401;-68
2023/10/11 12:50:03;;;;;;;12.20;5.07;;;45.00;21.50;;;;;;5014258;28;20172;-69
2023/10/11 12:52:32;;;;;;;5.63;3.93;;;44.10;20.90;;;;;;4996895;28;20417;-69
2023/10/11 12:55:00;;;;;;;9.03;4.10;;;43.80;22.30;;;;;;5014161;28;20507;-69
2023/10/11 12:57:27;;;;;;;8.27;3.90;;;43.90;22.00;;;;;;5014061;28;20417;-70
2023/10/11 12:59:52;;;;;;;7.63;4.27;;;44.00;22.40;;;;;;4996231;28;20455;-68
2023/10/11 13:02:21;;;;;;;7.10;3.93;;;44.20;22.20;;;;;;5014218;28;20407;-68
2023/10/11 13:04:47;;;;;;;6.53;4.20;;;44.30;21.90;;;;;;5014111;28;20535;-69
2023/10/11 13:07:15;;;;;;;7.03;4.30;;;44.70;22.30;;;;;;5013853;28;20434;-68
2023/10/11 13:09:41;;;;;;;7.97;4.80;;;43.90;21.90;;;;;;5013735;28;20374;-68
2023/10/11 13:12:08;;;;;;;8.57;3.93;;;43.40;21.80;;;;;;5013947;28;20608;-69
2023/10/11 13:14:35;;;;;;;5.30;4.37;;;43.50;22.20;;;;;;5013791;28;20378;-68
2023/10/11 13:17:04;;;;;;;5.73;4.40;;;43.40;22.70;;;;;;5013651;28;20405;-69
2023/10/11 13:19:30;;;;;;;7.13;4.00;;;43.20;22.10;;;;;;5013343;28;20446;-68
2023/10/11 13:21:56;;;;;;;5.07;4.00;;;42.20;22.60;;;;;;5013603;28;20776;-68
2023/10/11 13:24:24;;;;;;;7.63;3.73;;;41.50;23.10;;;;;;5013693;28;20199;-67
2023/10/11 13:26:51;;;;;;;5.97;4.20;;;40.90;23.40;;;;;;4996040;28;20183;-66
2023/10/11 13:29:18;;;;;;;8.77;4.80;;;39.90;23.70;;;;;;5013447;28;20411;-68
2023/10/11 13:31:54;;;;;;;6.30;4.90;;;38.70;24.30;;;;;;5013575;28;20412;-68
2023/10/11 13:34:33;;;;;;;6.57;4.60;;;37.80;25.60;;;;;;5013480;28;20462;-68
2023/10/11 13:37:00;;;;;;;7.93;3.90;;;36.70;26.30;;;;;;5013319;28;20501;-68
2023/10/11 13:39:26;;;;;;;9.50;4.23;;;35.80;27.10;;;;;;5013169;28;20542;-67
2023/10/11 13:41:57;;;;;;;7.30;4.40;;;35.10;27.70;;;;;;5013481;28;20399;-67
2023/10/11 13:44:24;;;;;;;8.53;4.07;;;34.40;28.00;;;;;;5013336;28;20414;-68
2023/10/11 13:46:55;;;;;;;5.37;3.50;;;33.80;28.70;;;;;;4995473;28;20438;-67